Time;durP1;ratioP1;P1;durP2;ratioP2;P2;SDS_P1;SDS_P2;PMS_P1;PMS_P2;Temp;Humidity;BMP_temperature;BMP_pressure;BME280_temperature;BME280_humidity;BME280_pressure;Samples;Min_cycle;Max_cycle;Signal;HPM_P1;HPM_P2
2023/08/19 00:01:00;;;;;;;7.13;3.65;;;;;;;;;;4994740;28;20030;-45
2023/08/19 00:03:26;;;;;;;7.82;3.38;;;;;;;;;;4994639;28;20073;-43
2023/08/19 00:05:51;;;;;;;3.65;3.10;;;;;;;;;;4994743;28;20042;-43
2023/08/19 00:08:17;;;;;;;5.47;3.25;;;;;;;;;;4992711;28;20065;-43
2023/08/19 00:10:43;;;;;;;4.18;3.35;;;;;;;;;;4995349;28;20057;-43
2023/08/19 00:13:08;;;;;;;4.45;3.30;;;;;;;;;;4995137;28;20038;-45
2023/08/19 00:15:34;;;;;;;5.35;3.55;;;;;;;;;;4991826;28;20075;-44
2023/08/19 00:18:00;;;;;;;5.20;3.50;;;;;;;;;;4993346;28;20034;-46
2023/08/19 00:20:28;;;;;;;3.53;3.22;;;;;;;;;;4995050;28;20026;-44
2023/08/19 00:22:55;;;;;;;7.90;3.83;;;;;;;;;;4961113;28;20046;-43
2023/08/19 00:25:20;;;;;;;6.28;3.35;;;;;;;;;;4996307;28;20026;-43
2023/08/19 00:27:46;;;;;;;9.30;3.70;;;;;;;;;;5012872;28;20038;-43
2023/08/19 00:30:12;;;;;;;6.45;3.40;;;;;;;;;;4983025;28;20069;-43
2023/08/19 00:32:37;;;;;;;4.65;3.30;;;;;;;;;;5002865;28;20054;-45
2023/08/19 00:35:03;;;;;;;7.75;3.53;;;;;;;;;;5008734;28;20057;-45
2023/08/19 00:37:30;;;;;;;8.30;3.70;;;;;;;;;;4992967;28;20031;-44
2023/08/19 00:39:56;;;;;;;8.10;3.53;;;;;;;;;;4996427;28;20038;-44
2023/08/19 00:42:21;;;;;;;9.18;3.85;;;;;;;;;;4998790;28;20046;-44
2023/08/19 00:44:47;;;;;;;8.48;3.60;;;;;;;;;;4998235;28;20499;-46
2023/08/19 00:47:12;;;;;;;7.32;4.05;;;;;;;;;;4993173;28;20413;-45
2023/08/19 00:49:38;;;;;;;6.40;3.85;;;;;;;;;;4997350;28;20042;-43
2023/08/19 00:52:03;;;;;;;5.95;3.67;;;;;;;;;;4987913;28;20034;-44
2023/08/19 00:54:29;;;;;;;7.50;3.67;;;;;;;;;;4997991;28;20065;-46
2023/08/19 00:56:55;;;;;;;6.38;4.03;;;;;;;;;;4998022;28;20026;-45
2023/08/19 00:59:20;;;;;;;4.43;3.60;;;;;;;;;;4997252;28;20046;-44
2023/08/19 01:01:46;;;;;;;4.35;3.60;;;;;;;;;;4979333;28;20045;-43
2023/08/19 01:04:11;;;;;;;9.85;4.20;;;;;;;;;;4998935;28;20073;-43
2023/08/19 01:07:03;;;;;;;8.57;3.78;;;;;;;;;;4978036;28;20137;-44
2023/08/19 01:09:52;;;;;;;11.55;3.70;;;;;;;;;;4976984;28;20043;-43
2023/08/19 01:12:32;;;;;;;6.00;3.55;;;;;;;;;;4997853;28;20031;-43
2023/08/19 01:15:04;;;;;;;6.60;3.83;;;;;;;;;;4997065;28;20121;-43
2023/08/19 01:17:31;;;;;;;6.32;3.97;;;;;;;;;;4995168;28;20129;-45
2023/08/19 01:19:57;;;;;;;6.60;3.88;;;;;;;;;;4997075;28;20066;-48
2023/08/19 01:22:51;;;;;;;4.35;3.92;;;;;;;;;;4999170;28;20397;-39
2023/08/19 01:25:17;;;;;;;7.47;3.60;;;;;;;;;;4993942;28;20030;-43
2023/08/19 01:27:43;;;;;;;5.85;3.55;;;;;;;;;;4996628;28;20053;-43
2023/08/19 01:30:09;;;;;;;5.63;4.20;;;;;;;;;;4994556;28;20050;-45
2023/08/19 01:32:35;;;;;;;9.02;3.88;;;;;;;;;;4998464;28;20034;-44
2023/08/19 01:35:01;;;;;;;10.80;4.18;;;;;;;;;;4997584;28;20038;-46
2023/08/19 01:37:51;;;;;;;9.88;4.07;;;;;;;;;;4997608;28;20038;-47
2023/08/19 01:40:17;;;;;;;4.40;3.40;;;;;;;;;;4997137;28;20034;-47
2023/08/19 01:42:44;;;;;;;7.15;4.43;;;;;;;;;;4996993;28;20054;-46
2023/08/19 01:45:11;;;;;;;7.97;3.78;;;;;;;;;;4997293;28;20029;-43
2023/08/19 01:47:37;;;;;;;10.75;3.78;;;;;;;;;;4995540;28;20374;-42
2023/08/19 01:50:04;;;;;;;8.32;3.83;;;;;;;;;;4996027;28;20042;-46
2023/08/19 01:52:30;;;;;;;8.02;3.90;;;;;;;;;;4977801;28;20073;-47
2023/08/19 01:54:55;;;;;;;8.07;4.20;;;;;;;;;;4996723;28;20030;-46
2023/08/19 01:57:20;;;;;;;10.35;3.78;;;;;;;;;;4992032;28;20023;-42
2023/08/19 01:59:46;;;;;;;6.47;3.65;;;;;;;;;;4996404;28;20050;-47
2023/08/19 02:02:11;;;;;;;8.50;4.38;;;;;;;;;;4979442;28;20088;-45
2023/08/19 02:04:37;;;;;;;7.25;3.88;;;;;;;;;;4994108;28;20138;-43
2023/08/19 02:07:02;;;;;;;6.88;3.90;;;;;;;;;;5010277;28;20026;-43
2023/08/19 02:09:29;;;;;;;4.80;4.10;;;;;;;;;;4996746;28;20062;-45
2023/08/19 02:11:55;;;;;;;6.15;4.07;;;;;;;;;;4991841;28;20030;-46
2023/08/19 02:14:20;;;;;;;12.20;4.60;;;;;;;;;;5006279;28;20049;-47
2023/08/19 02:16:45;;;;;;;7.65;4.10;;;;;;;;;;4993225;28;20042;-43
2023/08/19 02:19:11;;;;;;;6.63;4.35;;;;;;;;;;4996655;28;20374;-43
2023/08/19 02:21:36;;;;;;;4.93;3.80;;;;;;;;;;4996847;28;20448;-45
2023/08/19 02:24:02;;;;;;;4.47;4.05;;;;;;;;;;4995506;28;20039;-42
2023/08/19 02:26:27;;;;;;;8.02;3.63;;;;;;;;;;4979795;28;20026;-42
2023/08/19 02:28:53;;;;;;;6.03;3.90;;;;;;;;;;4993837;28;20038;-44
2023/08/19 02:31:18;;;;;;;6.97;3.58;;;;;;;;;;4994616;28;20034;-43
2023/08/19 02:33:43;;;;;;;7.93;3.95;;;;;;;;;;4995585;28;20125;-48
2023/08/19 02:36:09;;;;;;;4.63;3.80;;;;;;;;;;4996027;28;20463;-43
2023/08/19 02:38:34;;;;;;;5.38;3.72;;;;;;;;;;4978088;28;20045;-44
2023/08/19 02:41:00;;;;;;;8.23;3.55;;;;;;;;;;4996627;28;20058;-45
2023/08/19 02:43:25;;;;;;;8.10;3.80;;;;;;;;;;4995957;28;20038;-43
2023/08/19 02:45:53;;;;;;;4.03;3.63;;;;;;;;;;4997831;28;20034;-45
2023/08/19 02:48:18;;;;;;;6.43;3.90;;;;;;;;;;4991272;28;20045;-45
2023/08/19 02:50:43;;;;;;;6.90;3.97;;;;;;;;;;5006055;28;20599;-44
2023/08/19 02:53:09;;;;;;;8.75;3.63;;;;;;;;;;4978826;28;20065;-46
2023/08/19 02:55:42;;;;;;;7.85;3.72;;;;;;;;;;4996677;28;20030;-46
2023/08/19 02:58:08;;;;;;;4.10;3.70;;;;;;;;;;4994543;28;20042;-43
2023/08/19 03:00:36;;;;;;;10.52;4.43;;;;;;;;;;4995642;28;20080;-43
2023/08/19 03:03:02;;;;;;;7.97;3.95;;;;;;;;;;4995420;28;20226;-44
2023/08/19 03:05:28;;;;;;;6.88;3.92;;;;;;;;;;4995261;28;20026;-45
2023/08/19 03:07:53;;;;;;;7.18;4.00;;;;;;;;;;4991434;28;20034;-43
2023/08/19 03:10:19;;;;;;;5.13;4.07;;;;;;;;;;4995739;28;20121;-43
2023/08/19 03:12:44;;;;;;;5.97;3.97;;;;;;;;;;4993953;28;20065;-44
2023/08/19 03:15:10;;;;;;;6.88;3.90;;;;;;;;;;4996085;28;20088;-43
2023/08/19 03:17:35;;;;;;;9.68;4.43;;;;;;;;;;4975381;28;20112;-44
2023/08/19 03:20:00;;;;;;;8.32;4.05;;;;;;;;;;4996618;28;20097;-43
2023/08/19 03:22:26;;;;;;;7.05;4.38;;;;;;;;;;4994301;28;20041;-43
2023/08/19 03:24:52;;;;;;;9.52;4.07;;;;;;;;;;4971352;28;20026;-44
2023/08/19 03:27:17;;;;;;;9.40;3.55;;;;;;;;;;4989024;28;20065;-44
2023/08/19 03:29:43;;;;;;;12.23;4.63;;;;;;;;;;4994721;28;20038;-44
2023/08/19 03:32:08;;;;;;;6.25;4.30;;;;;;;;;;4994568;28;20085;-42
2023/08/19 03:34:33;;;;;;;8.82;4.20;;;;;;;;;;4978479;28;20042;-44
2023/08/19 03:36:59;;;;;;;5.90;3.58;;;;;;;;;;4994145;28;20042;-45
2023/08/19 03:39:25;;;;;;;5.13;3.80;;;;;;;;;;4988787;28;20068;-45
2023/08/19 03:41:50;;;;;;;6.32;3.97;;;;;;;;;;4979708;28;20026;-43
2023/08/19 03:44:16;;;;;;;7.05;3.75;;;;;;;;;;4998469;28;20050;-44
2023/08/19 03:46:42;;;;;;;5.82;3.75;;;;;;;;;;4994631;28;20022;-43
2023/08/19 03:49:07;;;;;;;6.78;3.63;;;;;;;;;;4995045;28;20042;-44
2023/08/19 03:51:32;;;;;;;5.50;4.22;;;;;;;;;;4995157;28;20109;-43
2023/08/19 03:53:58;;;;;;;7.18;3.90;;;;;;;;;;4994969;28;20042;-44
2023/08/19 03:56:23;;;;;;;4.90;3.83;;;;;;;;;;4994258;28;20084;-45
2023/08/19 03:58:49;;;;;;;7.65;4.30;;;;;;;;;;4993106;28;20034;-46
2023/08/19 04:01:14;;;;;;;5.82;3.75;;;;;;;;;;4996242;28;20432;-46
2023/08/19 04:03:39;;;;;;;4.43;3.63;;;;;;;;;;4993170;28;20049;-45
2023/08/19 04:06:05;;;;;;;4.38;3.92;;;;;;;;;;4995363;28;20080;-47
2023/08/19 04:08:30;;;;;;;6.20;4.13;;;;;;;;;;4977695;28;20173;-45
2023/08/19 04:11:06;;;;;;;5.22;3.45;;;;;;;;;;4992093;28;20388;-44
2023/08/19 04:13:32;;;;;;;5.90;3.53;;;;;;;;;;4979415;28;20038;-44
2023/08/19 04:16:04;;;;;;;5.55;4.03;;;;;;;;;;4998239;28;20028;-42
2023/08/19 04:18:31;;;;;;;4.53;3.88;;;;;;;;;;4980971;28;20173;-43
2023/08/19 04:20:56;;;;;;;7.22;4.65;;;;;;;;;;4999189;28;20053;-45
2023/08/19 04:23:22;;;;;;;7.60;4.35;;;;;;;;;;4998493;28;20120;-45
2023/08/19 04:25:47;;;;;;;8.50;3.83;;;;;;;;;;5000376;28;20030;-46
2023/08/19 04:28:14;;;;;;;5.00;3.83;;;;;;;;;;4998143;28;20042;-45
2023/08/19 04:30:40;;;;;;;6.43;3.70;;;;;;;;;;4998150;28;20030;-46
2023/08/19 04:33:06;;;;;;;10.20;4.63;;;;;;;;;;4998736;28;20153;-44
2023/08/19 04:35:31;;;;;;;7.72;4.07;;;;;;;;;;4998130;28;20066;-45
2023/08/19 04:37:57;;;;;;;4.20;3.80;;;;;;;;;;4980212;28;20062;-42
2023/08/19 04:40:22;;;;;;;8.18;4.30;;;;;;;;;;4998952;28;20034;-43
2023/08/19 04:42:48;;;;;;;16.98;4.63;;;;;;;;;;4985419;28;20046;-43
2023/08/19 04:45:14;;;;;;;7.47;3.90;;;;;;;;;;4999833;28;20038;-44
2023/08/19 04:47:40;;;;;;;4.85;4.15;;;;;;;;;;4996150;28;20107;-46
2023/08/19 04:50:08;;;;;;;9.27;4.38;;;;;;;;;;4979564;28;20038;-44
2023/08/19 04:52:34;;;;;;;5.82;4.30;;;;;;;;;;4982397;28;20033;-46
2023/08/19 04:54:59;;;;;;;9.20;4.82;;;;;;;;;;4994009;28;20034;-45
2023/08/19 04:57:25;;;;;;;7.88;4.60;;;;;;;;;;5029465;28;20334;-45
2023/08/19 04:59:50;;;;;;;6.40;4.65;;;;;;;;;;4981000;28;20066;-45
2023/08/19 05:02:16;;;;;;;6.53;3.85;;;;;;;;;;4981739;28;20030;-43
2023/08/19 05:04:41;;;;;;;6.97;4.18;;;;;;;;;;4994002;28;20069;-44
2023/08/19 05:07:07;;;;;;;5.85;3.78;;;;;;;;;;4996756;28;20038;-46
2023/08/19 05:09:32;;;;;;;7.32;4.05;;;;;;;;;;4996122;28;20038;-44
2023/08/19 05:11:57;;;;;;;4.43;3.90;;;;;;;;;;4994943;28;20022;-45
2023/08/19 05:14:23;;;;;;;5.97;4.00;;;;;;;;;;4996868;28;20772;-44
2023/08/19 05:16:48;;;;;;;6.75;4.10;;;;;;;;;;4998883;28;20397;-43
2023/08/19 05:19:18;;;;;;;6.88;3.70;;;;;;;;;;4990728;28;20093;-42
2023/08/19 05:21:45;;;;;;;9.98;4.60;;;;;;;;;;4990603;28;20042;-45
2023/08/19 05:24:11;;;;;;;7.22;3.70;;;;;;;;;;4997892;28;20054;-46
2023/08/19 05:26:40;;;;;;;7.95;3.95;;;;;;;;;;4998860;28;20668;-43
2023/08/19 05:29:06;;;;;;;8.07;4.32;;;;;;;;;;4994375;28;20035;-44
2023/08/19 05:31:32;;;;;;;4.50;3.97;;;;;;;;;;4997583;28;20393;-46
2023/08/19 05:33:57;;;;;;;8.30;4.13;;;;;;;;;;4979244;28;20042;-43
2023/08/19 05:36:23;;;;;;;5.93;4.35;;;;;;;;;;4981361;28;20485;-44
2023/08/19 05:38:48;;;;;;;8.35;3.67;;;;;;;;;;4996950;28;20038;-43
2023/08/19 05:41:13;;;;;;;5.38;4.10;;;;;;;;;;4999048;28;20026;-46
2023/08/19 05:43:39;;;;;;;6.47;4.20;;;;;;;;;;4996374;28;20133;-44
2023/08/19 05:46:05;;;;;;;7.28;4.20;;;;;;;;;;4981330;28;20029;-43
2023/08/19 05:48:31;;;;;;;6.32;3.50;;;;;;;;;;4993638;28;20042;-42
2023/08/19 05:50:56;;;;;;;13.45;4.00;;;;;;;;;;4998839;28;20692;-46
2023/08/19 05:53:22;;;;;;;11.23;4.43;;;;;;;;;;4995754;28;20038;-43
2023/08/19 05:55:47;;;;;;;10.27;4.53;;;;;;;;;;4996807;28;20041;-45
2023/08/19 05:58:13;;;;;;;5.82;3.95;;;;;;;;;;4997888;28;20042;-43
2023/08/19 06:00:39;;;;;;;8.02;4.10;;;;;;;;;;4996365;28;20034;-42
2023/08/19 06:03:04;;;;;;;5.32;3.83;;;;;;;;;;4994268;28;20038;-48
2023/08/19 06:05:30;;;;;;;8.07;4.07;;;;;;;;;;4996409;28;20030;-46
2023/08/19 06:07:55;;;;;;;4.43;4.03;;;;;;;;;;4980380;28;20042;-43
2023/08/19 06:10:21;;;;;;;12.48;3.75;;;;;;;;;;4991957;28;20023;-43
2023/08/19 06:12:46;;;;;;;5.78;3.85;;;;;;;;;;4995749;28;20039;-43
2023/08/19 06:15:12;;;;;;;7.05;3.75;;;;;;;;;;4997299;28;20165;-45
2023/08/19 06:17:37;;;;;;;6.03;4.05;;;;;;;;;;4997829;28;20037;-43
2023/08/19 06:20:03;;;;;;;7.25;3.88;;;;;;;;;;4994923;28;20038;-49
2023/08/19 06:22:29;;;;;;;5.93;4.03;;;;;;;;;;4992355;28;20030;-42
2023/08/19 06:24:54;;;;;;;5.25;4.05;;;;;;;;;;4995208;28;20117;-43
2023/08/19 06:27:19;;;;;;;7.72;3.80;;;;;;;;;;5029113;28;20041;-44
2023/08/19 06:29:45;;;;;;;7.78;4.03;;;;;;;;;;4995314;28;20046;-43
2023/08/19 06:32:11;;;;;;;6.57;4.10;;;;;;;;;;4991989;28;20833;-44
2023/08/19 06:34:37;;;;;;;7.57;3.88;;;;;;;;;;5022608;28;20038;-45
2023/08/19 06:37:04;;;;;;;6.88;4.13;;;;;;;;;;4995260;28;20062;-44
2023/08/19 06:39:32;;;;;;;9.70;3.95;;;;;;;;;;4988169;28;20039;-44
2023/08/19 06:42:02;;;;;;;10.15;3.70;;;;;;;;;;4995746;28;20069;-46
2023/08/19 06:44:29;;;;;;;4.80;3.55;;;;;;;;;;4997085;28;20042;-46
2023/08/19 06:46:56;;;;;;;5.20;3.80;;;;;;;;;;4997367;28;20477;-43
2023/08/19 06:49:22;;;;;;;3.92;3.55;;;;;;;;;;4978522;28;20038;-43
2023/08/19 06:51:48;;;;;;;4.75;3.67;;;;;;;;;;4995083;28;20037;-45
2023/08/19 06:54:14;;;;;;;11.18;4.30;;;;;;;;;;4978551;28;20034;-47
2023/08/19 06:56:49;;;;;;;8.35;3.88;;;;;;;;;;4994925;28;20371;-44
2023/08/19 06:59:22;;;;;;;7.03;4.47;;;;;;;;;;4978284;28;20042;-43
2023/08/19 07:01:56;;;;;;;5.28;3.50;;;;;;;;;;4992812;28;20038;-48
2023/08/19 07:04:27;;;;;;;6.50;3.83;;;;;;;;;;4995215;28;20042;-43
2023/08/19 07:06:56;;;;;;;41.53;5.45;;;;;;;;;;4997059;28;20121;-44
2023/08/19 07:09:22;;;;;;;9.73;4.18;;;;;;;;;;4992706;28;20042;-43
2023/08/19 07:11:50;;;;;;;13.38;3.70;;;;;;;;;;4995917;28;20038;-46
2023/08/19 07:14:15;;;;;;;4.53;3.88;;;;;;;;;;5001933;28;20129;-45
2023/08/19 07:16:41;;;;;;;9.02;3.92;;;;;;;;;;4995316;28;20050;-44
2023/08/19 07:19:11;;;;;;;4.18;3.55;;;;;;;;;;4995324;28;20240;-46
2023/08/19 07:21:37;;;;;;;5.32;3.70;;;;;;;;;;4992285;28;20125;-45
2023/08/19 07:24:03;;;;;;;8.00;4.18;;;;;;;;;;4995304;28;20049;-46
2023/08/19 07:26:30;;;;;;;5.60;4.05;;;;;;;;;;4979662;28;20098;-43
2023/08/19 07:28:56;;;;;;;8.10;3.90;;;;;;;;;;4994135;28;20148;-43
2023/08/19 07:31:22;;;;;;;27.13;6.15;;;;;;;;;;4994285;28;20018;-47
2023/08/19 07:33:48;;;;;;;10.95;4.93;;;;;;;;;;4986884;28;20512;-46
2023/08/19 07:36:14;;;;;;;4.68;4.20;;;;;;;;;;4987970;28;20054;-43
2023/08/19 07:38:39;;;;;;;6.93;3.78;;;;;;;;;;4981029;28;20519;-43
2023/08/19 07:41:05;;;;;;;5.95;3.90;;;;;;;;;;4975700;28;20030;-44
2023/08/19 07:43:30;;;;;;;6.88;4.00;;;;;;;;;;4956029;28;20053;-43
2023/08/19 07:45:55;;;;;;;6.68;3.97;;;;;;;;;;4984530;28;20037;-44
2023/08/19 07:48:21;;;;;;;8.75;3.88;;;;;;;;;;4985428;28;20053;-45
2023/08/19 07:50:46;;;;;;;6.93;4.38;;;;;;;;;;4989497;28;20598;-43
2023/08/19 07:53:12;;;;;;;6.57;4.65;;;;;;;;;;4990259;28;20034;-44
2023/08/19 07:55:38;;;;;;;5.00;4.45;;;;;;;;;;4992961;28;20102;-44
2023/08/19 07:58:04;;;;;;;8.38;4.07;;;;;;;;;;4993832;28;20517;-45
2023/08/19 08:00:29;;;;;;;6.35;4.70;;;;;;;;;;4988735;28;20101;-46
2023/08/19 08:02:55;;;;;;;9.30;4.15;;;;;;;;;;4989862;28;20076;-46
2023/08/19 08:05:20;;;;;;;9.48;4.40;;;;;;;;;;4993592;28;20038;-43
2023/08/19 08:07:46;;;;;;;8.32;4.93;;;;;;;;;;4989626;28;20043;-43
2023/08/19 08:10:11;;;;;;;6.18;4.57;;;;;;;;;;4992310;28;20454;-42
2023/08/19 08:12:37;;;;;;;8.18;4.55;;;;;;;;;;4993007;28;20034;-44
2023/08/19 08:15:03;;;;;;;6.07;4.53;;;;;;;;;;4976524;28;20026;-44
2023/08/19 08:17:29;;;;;;;13.85;5.13;;;;;;;;;;4994468;28;20056;-45
2023/08/19 08:19:57;;;;;;;15.15;5.50;;;;;;;;;;4992881;28;20421;-47
2023/08/19 08:22:23;;;;;;;15.70;5.68;;;;;;;;;;4993061;28;20022;-44
2023/08/19 08:24:49;;;;;;;6.25;5.07;;;;;;;;;;4977116;28;20050;-48
2023/08/19 08:27:15;;;;;;;16.77;4.80;;;;;;;;;;4994655;28;20034;-46
2023/08/19 08:29:40;;;;;;;5.00;4.13;;;;;;;;;;4978165;28;20046;-46
2023/08/19 08:32:06;;;;;;;6.63;4.45;;;;;;;;;;4974262;28;20074;-45
2023/08/19 08:34:31;;;;;;;5.93;4.93;;;;;;;;;;4991254;28;20034;-47
2023/08/19 08:36:57;;;;;;;4.78;3.60;;;;;;;;;;4995004;28;20057;-46
2023/08/19 08:39:22;;;;;;;5.38;4.53;;;;;;;;;;4994419;28;20065;-43
2023/08/19 08:41:48;;;;;;;5.25;3.75;;;;;;;;;;4992658;28;20041;-45
2023/08/19 08:44:13;;;;;;;8.00;3.63;;;;;;;;;;4994588;28;20049;-45
2023/08/19 08:46:39;;;;;;;3.53;3.13;;;;;;;;;;4995239;28;20027;-47
2023/08/19 08:49:07;;;;;;;11.05;3.70;;;;;;;;;;4994120;28;20097;-46
2023/08/19 08:51:32;;;;;;;9.02;3.60;;;;;;;;;;4993716;28;20381;-45
2023/08/19 08:54:00;;;;;;;11.20;3.72;;;;;;;;;;4992783;28;20042;-44
2023/08/19 08:56:26;;;;;;;3.42;3.13;;;;;;;;;;4977847;28;20121;-43
2023/08/19 08:58:51;;;;;;;12.88;4.28;;;;;;;;;;4978330;28;20116;-46
2023/08/19 09:01:19;;;;;;;10.93;4.32;;;;;;;;;;4998470;28;20113;-44
2023/08/19 09:03:46;;;;;;;6.53;3.03;;;;;;;;;;4997887;28;20126;-43
2023/08/19 09:06:15;;;;;;;12.80;3.03;;;;;;;;;;4997631;28;20030;-52
2023/08/19 09:08:55;;;;;;;6.68;3.40;;;;;;;;;;4991985;28;20105;-46
2023/08/19 09:11:25;;;;;;;3.72;2.47;;;;;;;;;;4993398;28;20034;-46
2023/08/19 09:13:56;;;;;;;5.05;3.35;;;;;;;;;;5008250;28;20101;-44
2023/08/19 09:16:21;;;;;;;6.32;3.47;;;;;;;;;;4997960;28;20026;-44
2023/08/19 09:18:47;;;;;;;4.82;3.00;;;;;;;;;;4993478;28;20842;-44
2023/08/19 09:21:12;;;;;;;9.32;3.28;;;;;;;;;;4994160;28;20507;-43
2023/08/19 09:23:39;;;;;;;5.78;3.50;;;;;;;;;;4997686;28;20043;-44
2023/08/19 09:26:05;;;;;;;8.00;3.28;;;;;;;;;;4998080;28;20030;-44
2023/08/19 09:28:33;;;;;;;5.15;3.42;;;;;;;;;;4992206;28;20069;-46
2023/08/19 09:30:59;;;;;;;4.85;3.40;;;;;;;;;;4996626;28;20611;-45
2023/08/19 09:33:24;;;;;;;4.90;3.47;;;;;;;;;;4980757;28;20034;-44
2023/08/19 09:35:57;;;;;;;4.30;2.90;;;;;;;;;;4994474;28;20055;-43
2023/08/19 09:38:24;;;;;;;5.47;3.13;;;;;;;;;;4995280;28;20038;-43
2023/08/19 09:40:58;;;;;;;7.63;3.25;;;;;;;;;;4995989;28;20030;-44
2023/08/19 09:43:23;;;;;;;4.03;2.97;;;;;;;;;;4994533;28;20034;-43
2023/08/19 09:45:49;;;;;;;3.47;2.85;;;;;;;;;;4998891;28;20040;-43
2023/08/19 09:48:15;;;;;;;8.02;3.20;;;;;;;;;;4995664;28;20041;-46
2023/08/19 09:50:45;;;;;;;6.28;3.28;;;;;;;;;;4996191;28;20033;-44
2023/08/19 09:53:15;;;;;;;5.50;3.22;;;;;;;;;;4991880;28;20567;-47
2023/08/19 09:55:44;;;;;;;9.07;2.97;;;;;;;;;;4994978;28;20026;-44
2023/08/19 09:58:10;;;;;;;7.05;3.15;;;;;;;;;;4994333;28;20050;-45
2023/08/19 10:00:35;;;;;;;7.85;3.42;;;;;;;;;;5007184;28;20560;-45
2023/08/19 10:03:02;;;;;;;5.82;3.25;;;;;;;;;;4996163;28;20038;-44
2023/08/19 10:05:31;;;;;;;5.70;3.10;;;;;;;;;;4993170;28;20034;-45
2023/08/19 10:08:01;;;;;;;3.03;2.78;;;;;;;;;;4991785;28;20035;-44
2023/08/19 10:10:30;;;;;;;3.15;2.83;;;;;;;;;;4992663;28;20034;-45
2023/08/19 10:12:57;;;;;;;5.97;3.25;;;;;;;;;;4996093;28;20065;-44
2023/08/19 10:15:26;;;;;;;9.18;3.30;;;;;;;;;;4997603;28;20030;-44
2023/08/19 10:17:55;;;;;;;4.85;3.10;;;;;;;;;;4991515;28;20058;-44
2023/08/19 10:20:25;;;;;;;9.57;3.60;;;;;;;;;;4975282;28;20045;-47
2023/08/19 10:22:54;;;;;;;10.05;3.47;;;;;;;;;;4991701;28;20051;-45
2023/08/19 10:25:20;;;;;;;5.53;3.10;;;;;;;;;;4996046;28;20416;-43
2023/08/19 10:27:46;;;;;;;6.65;2.88;;;;;;;;;;4991223;28;20042;-44
2023/08/19 10:30:31;;;;;;;5.32;2.97;;;;;;;;;;4994957;28;20523;-45
2023/08/19 10:33:03;;;;;;;5.47;2.92;;;;;;;;;;5008219;28;20042;-43
2023/08/19 10:35:49;;;;;;;7.57;3.53;;;;;;;;;;4981785;28;20080;-44
2023/08/19 10:38:15;;;;;;;3.88;3.03;;;;;;;;;;4989535;28;20058;-43
2023/08/19 10:40:41;;;;;;;7.88;3.05;;;;;;;;;;4994008;28;20026;-44
2023/08/19 10:43:06;;;;;;;7.00;3.38;;;;;;;;;;4996053;28;20077;-43
2023/08/19 10:45:36;;;;;;;7.63;3.20;;;;;;;;;;4995218;28;20473;-44
2023/08/19 10:48:02;;;;;;;5.57;3.53;;;;;;;;;;4995326;28;20161;-45
2023/08/19 10:50:34;;;;;;;6.45;3.42;;;;;;;;;;5012838;28;20022;-44
2023/08/19 10:53:01;;;;;;;4.45;3.08;;;;;;;;;;4993170;28;20043;-46
2023/08/19 10:55:26;;;;;;;11.82;3.15;;;;;;;;;;4977814;28;20093;-45
2023/08/19 10:57:53;;;;;;;9.50;3.58;;;;;;;;;;4996030;28;20043;-44
2023/08/19 11:00:26;;;;;;;7.88;3.50;;;;;;;;;;4980090;28;20472;-44
2023/08/19 11:02:51;;;;;;;5.43;3.30;;;;;;;;;;4995817;28;20038;-43
2023/08/19 11:05:26;;;;;;;7.47;3.40;;;;;;;;;;4977829;28;20050;-43
2023/08/19 11:07:52;;;;;;;7.05;3.22;;;;;;;;;;5026164;28;20034;-45
2023/08/19 11:10:18;;;;;;;9.20;3.50;;;;;;;;;;5027318;28;20033;-46
2023/08/19 11:12:48;;;;;;;4.40;3.25;;;;;;;;;;4995599;28;20046;-43
2023/08/19 11:15:23;;;;;;;7.72;3.55;;;;;;;;;;4995994;28;20022;-43
2023/08/19 11:17:49;;;;;;;6.55;3.53;;;;;;;;;;4993868;28;20034;-44
2023/08/19 11:20:15;;;;;;;3.60;3.30;;;;;;;;;;4993513;28;20034;-44
2023/08/19 11:22:45;;;;;;;6.30;3.75;;;;;;;;;;4996423;28;20034;-45
2023/08/19 11:25:12;;;;;;;3.17;2.88;;;;;;;;;;5025662;28;20034;-43
2023/08/19 11:27:38;;;;;;;5.07;3.55;;;;;;;;;;5027207;28;20027;-45
2023/08/19 11:30:05;;;;;;;9.35;3.47;;;;;;;;;;4995576;28;20109;-44
2023/08/19 11:32:31;;;;;;;5.50;3.45;;;;;;;;;;4994187;28;20034;-44
2023/08/19 11:34:56;;;;;;;5.35;3.75;;;;;;;;;;4987387;28;20505;-46
2023/08/19 11:37:22;;;;;;;4.00;3.33;;;;;;;;;;4994851;28;20030;-44
2023/08/19 11:39:47;;;;;;;5.35;3.60;;;;;;;;;;4976597;28;20034;-44
2023/08/19 11:42:13;;;;;;;7.57;3.28;;;;;;;;;;4992720;28;20543;-44
2023/08/19 11:44:42;;;;;;;8.02;3.30;;;;;;;;;;4989553;28;20140;-46
2023/08/19 11:47:07;;;;;;;5.97;3.33;;;;;;;;;;4989762;28;20034;-43
2023/08/19 11:49:33;;;;;;;7.53;3.45;;;;;;;;;;4992942;28;20045;-49
2023/08/19 11:51:59;;;;;;;9.70;3.63;;;;;;;;;;5017378;28;20030;-44
2023/08/19 11:54:24;;;;;;;7.03;3.22;;;;;;;;;;4991871;28;20378;-45
2023/08/19 11:56:54;;;;;;;7.38;3.67;;;;;;;;;;4975798;28;20026;-46
2023/08/19 11:59:31;;;;;;;3.92;2.97;;;;;;;;;;4986085;28;20190;-47
2023/08/19 12:01:57;;;;;;;10.77;3.90;;;;;;;;;;4992592;28;20026;-43
2023/08/19 12:04:23;;;;;;;7.13;3.35;;;;;;;;;;4986139;28;20193;-44
2023/08/19 12:06:49;;;;;;;4.80;3.42;;;;;;;;;;4986653;28;20109;-46
2023/08/19 12:09:18;;;;;;;4.50;3.05;;;;;;;;;;4989900;28;20104;-44
2023/08/19 12:11:49;;;;;;;5.25;3.50;;;;;;;;;;4994916;28;20030;-46
2023/08/19 12:14:15;;;;;;;;;;;;;;;;;;4993958;28;20030;-44
2023/08/19 12:16:40;;;;;;;5.85;3.72;;;;;;;;;;4993468;28;20283;-45
2023/08/19 12:19:06;;;;;;;6.28;3.67;;;;;;;;;;4993391;28;20069;-43
2023/08/19 12:21:31;;;;;;;3.70;3.35;;;;;;;;;;4993521;28;20129;-46
2023/08/19 12:23:57;;;;;;;4.55;3.25;;;;;;;;;;4994482;28;20034;-43
2023/08/19 12:26:22;;;;;;;7.18;3.38;;;;;;;;;;4994105;28;20026;-44
2023/08/19 12:28:48;;;;;;;4.60;3.17;;;;;;;;;;4992998;28;20121;-44
2023/08/19 12:31:13;;;;;;;4.70;3.17;;;;;;;;;;4987099;28;20026;-43
2023/08/19 12:33:41;;;;;;;4.25;3.10;;;;;;;;;;4994847;28;20098;-43
2023/08/19 12:36:07;;;;;;;4.35;3.22;;;;;;;;;;4998825;28;20057;-43
2023/08/19 12:38:33;;;;;;;6.20;3.30;;;;;;;;;;4997632;28;20054;-45
2023/08/19 12:40:58;;;;;;;5.60;2.92;;;;;;;;;;4999106;28;20092;-43
2023/08/19 12:43:24;;;;;;;3.40;3.10;;;;;;;;;;4997756;28;20080;-45
2023/08/19 12:45:49;;;;;;;6.45;3.10;;;;;;;;;;4997441;28;20034;-45
2023/08/19 12:48:15;;;;;;;5.07;3.05;;;;;;;;;;4998502;28;20133;-44
2023/08/19 12:50:40;;;;;;;4.53;3.20;;;;;;;;;;4997880;28;20026;-43
2023/08/19 12:53:07;;;;;;;6.00;3.25;;;;;;;;;;4995706;28;20030;-46
2023/08/19 12:55:32;;;;;;;3.78;3.10;;;;;;;;;;4989341;28;20097;-44
2023/08/19 12:57:58;;;;;;;5.63;3.50;;;;;;;;;;4995524;28;20042;-43
2023/08/19 13:00:28;;;;;;;8.90;3.08;;;;;;;;;;4997052;28;20093;-45
2023/08/19 13:02:53;;;;;;;10.63;3.40;;;;;;;;;;4995297;28;20042;-43
2023/08/19 13:05:21;;;;;;;7.60;3.30;;;;;;;;;;4997983;28;20033;-44
2023/08/19 13:07:47;;;;;;;5.93;3.13;;;;;;;;;;4999232;28;20096;-43
2023/08/19 13:10:13;;;;;;;6.20;2.80;;;;;;;;;;4999678;28;20049;-44
2023/08/19 13:12:39;;;;;;;9.60;2.90;;;;;;;;;;4996475;28;20038;-43
2023/08/19 13:15:06;;;;;;;5.07;3.50;;;;;;;;;;4996761;28;20036;-44
2023/08/19 13:17:31;;;;;;;5.68;3.20;;;;;;;;;;4977815;28;20059;-44
2023/08/19 13:19:57;;;;;;;4.88;3.28;;;;;;;;;;4990145;28;20518;-43
2023/08/19 13:22:23;;;;;;;6.15;3.55;;;;;;;;;;4998166;28;20025;-44
2023/08/19 13:24:50;;;;;;;5.82;3.10;;;;;;;;;;4998987;28;20133;-43
2023/08/19 13:27:16;;;;;;;6.70;2.92;;;;;;;;;;4995071;28;20018;-45
2023/08/19 13:29:42;;;;;;;4.72;3.08;;;;;;;;;;4988863;28;20046;-42
2023/08/19 13:32:11;;;;;;;8.10;3.30;;;;;;;;;;4992128;28;20042;-43
2023/08/19 13:34:36;;;;;;;9.85;3.67;;;;;;;;;;5029086;28;20041;-44
2023/08/19 13:37:03;;;;;;;8.32;3.35;;;;;;;;;;4994884;28;20385;-43
2023/08/19 13:39:29;;;;;;;5.32;3.50;;;;;;;;;;4998384;28;20110;-46
2023/08/19 13:41:54;;;;;;;4.63;3.65;;;;;;;;;;4993859;28;20404;-44
2023/08/19 13:44:24;;;;;;;9.13;3.05;;;;;;;;;;4995780;28;20077;-41
2023/08/19 13:46:50;;;;;;;11.55;3.58;;;;;;;;;;4994549;28;20109;-65
2023/08/19 13:49:16;;;;;;;4.53;3.35;;;;;;;;;;4994782;28;20058;-42
2023/08/19 13:51:42;;;;;;;3.47;3.03;;;;;;;;;;4996338;28;20387;-42
2023/08/19 13:54:07;;;;;;;12.52;3.22;;;;;;;;;;4997812;28;20105;-41
2023/08/19 13:56:32;;;;;;;9.88;3.58;;;;;;;;;;4996524;28;20034;-41
2023/08/19 13:58:58;;;;;;;5.18;3.17;;;;;;;;;;4997254;28;20102;-47
2023/08/19 14:01:23;;;;;;;3.80;3.35;;;;;;;;;;4995174;28;20560;-47
2023/08/19 14:03:49;;;;;;;5.20;3.60;;;;;;;;;;4994575;28;20045;-64
2023/08/19 14:06:14;;;;;;;7.85;3.72;;;;;;;;;;5025564;28;20127;-61
2023/08/19 14:08:40;;;;;;;7.00;3.22;;;;;;;;;;5007284;28;20073;-53
2023/08/19 14:11:08;;;;;;;6.78;3.53;;;;;;;;;;5028522;28;20026;-45
2023/08/19 14:13:34;;;;;;;8.25;3.50;;;;;;;;;;4996392;28;20049;-42
2023/08/19 14:15:59;;;;;;;4.85;3.55;;;;;;;;;;4991550;28;20034;-44
2023/08/19 14:18:25;;;;;;;7.10;3.72;;;;;;;;;;4994198;28;20035;-45
2023/08/19 14:20:50;;;;;;;7.25;3.60;;;;;;;;;;4997978;28;20039;-33
2023/08/19 14:23:16;;;;;;;4.35;3.17;;;;;;;;;;4995037;28;20050;-56
2023/08/19 14:25:42;;;;;;;4.93;3.55;;;;;;;;;;4996588;28;20022;-54
2023/08/19 14:28:07;;;;;;;7.30;3.50;;;;;;;;;;4994882;28;20038;-54
2023/08/19 14:30:32;;;;;;;10.15;3.40;;;;;;;;;;4996363;28;20014;-54
2023/08/19 14:32:58;;;;;;;3.78;3.45;;;;;;;;;;4995135;28;20100;-53
2023/08/19 14:35:23;;;;;;;6.45;3.35;;;;;;;;;;4996481;28;20057;-52
2023/08/19 14:37:49;;;;;;;5.30;3.58;;;;;;;;;;4994490;28;20808;-54
2023/08/19 14:40:14;;;;;;;6.25;3.50;;;;;;;;;;4997704;28;20030;-52